Live aus Altenrhein
LIVE
LSZR 230450Z VRB02KT 9999 SCT070 12/10 Q1019 NOSIG RMK A

People´s Info Center:

Öffnungszeiten Mo-Fr, 8-18 Uhr

 

info@peoples.ch

 
Aus Österreich:

T: +43 (0)5572 203 610

 

Aus CH / LI / DE:

T: +41 (0)71 858 51 60

 

Flugbetreuung

Hilfestellungen und Infos für besondere Fluggäste.

Barrierefrei fliegen

Rundum versorgt.

Kinderleicht reisen

Werdende Mütter, Babies und alleinreisende Kinder.

Tiere an Bord

Hunde und Katzen erlaubt.

Service an Bord

Regionale und saisonale Spezialitäten.